Time;durP1;ratioP1;P1;durP2;ratioP2;P2;SDS_P1;SDS_P2;PMS_P1;PMS_P2;Temp;Humidity;BMP_temperature;BMP_pressure;BME280_temperature;BME280_humidity;BME280_pressure;Samples;Min_cycle;Max_cycle;Signal;HPM_P1;HPM_P2
2021/04/08 00:01:44;;;;;;;5.37;4.77;;;;;;;1.14;100.00;151661.09;5041400;28;20426;-88
2021/04/08 00:04:19;;;;;;;5.77;4.60;;;;;;;1.14;100.00;151662.38;5051563;28;20450;-88
2021/04/08 00:06:56;;;;;;;5.77;4.50;;;;;;;1.06;100.00;151640.56;5051040;28;20470;-88
2021/04/08 00:09:31;;;;;;;5.93;4.33;;;;;;;1.06;100.00;151641.81;5033771;28;20439;-88
2021/04/08 00:12:07;;;;;;;5.20;4.70;;;;;;;1.02;100.00;151630.28;5033420;28;20832;-87
2021/04/08 00:14:42;;;;;;;6.40;4.20;;;;;;;1.00;100.00;151625.16;5034419;28;20459;-88
2021/04/08 00:17:17;;;;;;;6.70;4.20;;;;;;;0.97;100.00;151618.72;5052933;28;20454;-88
2021/04/08 00:19:52;;;;;;;6.17;5.33;;;;;;;1.02;100.00;151630.28;5037396;28;20458;-88
2021/04/08 00:22:28;;;;;;;5.87;5.30;;;;;;;1.02;100.00;151630.28;5053465;28;20867;-88
2021/04/08 00:25:05;;;;;;;5.90;5.10;;;;;;;1.03;100.00;151632.88;5033475;28;20443;-88
2021/04/08 00:27:39;;;;;;;4.93;4.47;;;;;;;1.00;100.00;151625.16;5041766;28;20501;-88
2021/04/08 00:30:15;;;;;;;5.90;4.90;;;;;;;0.97;100.00;151618.72;5040940;28;20451;-88
2021/04/08 00:32:50;;;;;;;7.43;5.00;;;;;;;0.96;100.00;151616.16;5062571;28;20823;-88
2021/04/08 00:35:25;;;;;;;6.53;5.13;;;;;;;0.94;100.00;151609.72;5049958;28;20450;-88
2021/04/08 00:38:02;;;;;;;5.20;4.43;;;;;;;0.95;100.00;151613.59;5032681;28;20536;-88
2021/04/08 00:40:37;;;;;;;5.17;4.67;;;;;;;0.94;100.00;151611.03;5051095;28;20435;-87
2021/04/08 00:43:13;;;;;;;6.43;5.07;;;;;;;0.95;100.00;151612.31;5041026;28;20500;-88
2021/04/08 00:45:48;;;;;;;6.90;5.10;;;;;;;0.96;100.00;151616.16;5060878;28;20921;-88
2021/04/08 00:48:23;;;;;;;8.10;5.83;;;;;;;0.91;100.00;151603.31;5047652;28;20481;-87
2021/04/08 00:50:59;;;;;;;7.87;5.80;;;;;;;0.92;100.00;151605.91;5020925;28;20938;-88
2021/04/08 00:53:35;;;;;;;6.73;5.27;;;;;;;0.93;100.00;151608.44;5052914;28;20827;-87
2021/04/08 00:56:11;;;;;;;7.45;4.93;;;;;;;0.94;100.00;151609.72;5042882;28;20446;-88
2021/04/08 00:58:46;;;;;;;6.43;4.57;;;;;;;0.96;100.00;151614.84;5033277;28;20209;-88
2021/04/08 01:01:21;;;;;;;5.87;4.40;;;;;;;0.92;100.00;151605.91;5023729;28;20450;-88
2021/04/08 01:03:57;;;;;;;6.07;4.80;;;;;;;0.92;100.00;151605.91;5041441;28;20973;-88
2021/04/08 01:06:32;;;;;;;6.43;5.83;;;;;;;0.92;100.00;151605.91;5050012;28;20893;-88
2021/04/08 01:09:08;;;;;;;6.37;5.40;;;;;;;0.93;100.00;151608.44;5055301;28;21030;-88
2021/04/08 01:11:43;;;;;;;6.03;5.30;;;;;;;0.92;100.00;151605.91;5070310;28;20438;-87
2021/04/08 01:14:18;;;;;;;5.33;4.50;;;;;;;0.94;100.00;151609.72;5037390;28;20454;-87
2021/04/08 01:16:56;;;;;;;7.13;4.77;;;;;;;0.95;100.00;151613.59;5041239;28;20810;-88
2021/04/08 01:19:58;;;;;;;6.60;5.37;;;;;;;0.98;100.00;151621.28;5052731;28;20450;-88
2021/04/08 01:22:50;;;;;;;7.03;5.33;;;;;;;0.99;100.00;151622.56;5049431;28;20430;-88
2021/04/08 01:25:48;;;;;;;5.90;5.23;;;;;;;0.98;100.00;151620.03;5039362;28;20450;-87
2021/04/08 01:28:27;;;;;;;6.93;5.40;;;;;;;0.96;100.00;151616.16;5037426;28;20480;-87
2021/04/08 01:31:05;;;;;;;6.33;5.23;;;;;;;0.93;100.00;151607.13;5035068;28;20446;-87
2021/04/08 01:33:42;;;;;;;7.73;5.60;;;;;;;0.91;100.00;151603.31;5052166;28;20450;-87
2021/04/08 01:36:19;;;;;;;9.77;5.93;;;;;;;0.91;100.00;151603.31;5036825;28;20450;-87
2021/04/08 01:39:00;;;;;;;9.03;5.80;;;;;;;0.92;100.00;151605.91;5049326;28;20545;-87
2021/04/08 01:41:37;;;;;;;10.47;6.60;;;;;;;0.91;100.00;151602.00;5040287;28;20458;-87
2021/04/08 01:44:17;;;;;;;8.63;6.50;;;;;;;0.89;100.00;151598.19;5085535;28;20442;-87
2021/04/08 01:46:57;;;;;;;6.10;5.50;;;;;;;0.91;100.00;151603.31;5046118;28;20961;-88
2021/04/08 01:49:34;;;;;;;7.10;5.73;;;;;;;0.93;100.00;151607.13;5069223;27;20848;-87
2021/04/08 01:52:14;;;;;;;6.73;5.70;;;;;;;0.95;100.00;151613.59;5069716;28;20463;-88
2021/04/08 01:54:51;;;;;;;6.93;6.20;;;;;;;0.98;100.00;151621.28;5048295;28;20920;-88
2021/04/08 01:57:27;;;;;;;7.47;6.40;;;;;;;0.99;100.00;151623.84;5038601;28;20533;-87
2021/04/08 02:00:06;;;;;;;7.63;5.77;;;;;;;1.00;100.00;151626.44;5051609;28;20538;-87
2021/04/08 02:02:45;;;;;;;9.37;6.40;;;;;;;0.99;100.00;151623.84;5051534;28;20443;-88
2021/04/08 02:05:21;;;;;;;7.32;5.45;;;;;;;1.01;100.00;151628.97;5052028;28;20446;-88
2021/04/08 02:07:58;;;;;;;6.80;5.63;;;;;;;1.03;100.00;151632.88;5040743;28;20267;-88
2021/04/08 02:10:34;;;;;;;9.70;6.03;;;;;;;1.07;100.00;151644.41;5050744;28;20453;-88
2021/04/08 02:13:11;;;;;;;5.83;4.60;;;;;;;1.01;100.00;151628.97;5057939;28;20441;-88
2021/04/08 02:15:47;;;;;;;7.03;4.80;;;;;;;1.03;99.69;151634.09;5040433;28;20430;-88
2021/04/08 02:18:23;;;;;;;6.00;4.80;;;;;;;1.01;100.00;151628.97;5026028;28;20458;-88
2021/04/08 02:20:59;;;;;;;4.93;4.20;;;;;;;1.02;99.96;151631.56;5036953;28;20439;-88
2021/04/08 02:23:36;;;;;;;4.03;3.53;;;;;;;1.02;99.83;151631.56;5050588;28;20925;-88
2021/04/08 02:26:13;;;;;;;5.70;4.37;;;;;;;1.04;100.00;151636.69;5055633;28;20458;-88
2021/04/08 02:28:49;;;;;;;7.23;4.00;;;;;;;0.99;98.86;151623.84;5039436;28;20572;-88
2021/04/08 02:31:24;;;;;;;5.67;3.90;;;;;;;1.02;99.99;151631.56;5074816;28;20453;-88
2021/04/08 02:34:00;;;;;;;4.53;3.83;;;;;;;1.01;99.67;151628.97;5073180;28;20430;-88
2021/04/08 02:36:36;;;;;;;6.20;4.23;;;;;;;1.02;98.93;151631.56;5044170;28;20451;-87
2021/04/08 02:39:11;;;;;;;5.70;4.10;;;;;;;1.00;98.68;151626.44;5054299;28;20444;-87
2021/04/08 02:41:47;;;;;;;6.13;4.23;;;;;;;1.02;99.12;151631.56;5060344;28;20443;-87
2021/04/08 02:44:22;;;;;;;4.27;3.80;;;;;;;1.04;99.26;151636.69;5042521;28;20455;-87
2021/04/08 02:46:57;;;;;;;6.50;3.80;;;;;;;1.01;98.24;151628.97;5037830;28;20481;-87
2021/04/08 02:49:33;;;;;;;4.97;4.03;;;;;;;1.02;98.26;151630.28;5048164;28;20478;-87
2021/04/08 02:52:12;;;;;;;4.22;3.45;;;;;;;1.02;98.75;151631.56;5060445;28;20430;-87
2021/04/08 02:54:50;;;;;;;3.80;3.00;;;;;;;1.02;99.88;151631.56;5034832;28;20211;-87
2021/04/08 02:57:30;;;;;;;4.77;3.50;;;;;;;1.00;98.50;151625.16;5041335;28;20470;-87
2021/04/08 03:00:08;;;;;;;4.10;3.70;;;;;;;0.98;99.12;151621.28;5072322;28;20952;-87
2021/04/08 03:02:43;;;;;;;3.90;3.50;;;;;;;0.94;98.91;151611.03;5043379;28;20936;-87
2021/04/08 03:05:20;;;;;;;5.20;3.67;;;;;;;0.97;98.87;151618.72;5034693;28;20790;-87
2021/04/08 03:07:56;;;;;;;4.30;3.50;;;;;;;0.98;100.00;151620.03;5045378;28;20485;-88
2021/04/08 03:10:32;;;;;;;3.60;3.23;;;;;;;0.98;99.73;151621.28;5071952;28;20470;-87
2021/04/08 03:13:08;;;;;;;5.43;3.50;;;;;;;0.99;99.76;151623.84;5056687;28;20912;-87
2021/04/08 03:15:44;;;;;;;4.57;3.77;;;;;;;0.98;98.06;151620.03;5050058;28;20450;-87
2021/04/08 03:18:20;;;;;;;5.33;3.30;;;;;;;0.98;100.00;151621.28;5040211;28;20451;-87
2021/04/08 03:20:56;;;;;;;4.00;3.10;;;;;;;0.99;100.00;151623.84;5049835;28;21097;-88
2021/04/08 03:23:34;;;;;;;5.70;3.93;;;;;;;0.97;99.04;151618.72;5034518;28;20941;-87
2021/04/08 03:26:10;;;;;;;4.20;3.17;;;;;;;0.95;98.01;151613.59;5018812;28;20948;-87
2021/04/08 03:28:45;;;;;;;4.90;3.47;;;;;;;0.98;97.07;151621.28;5051947;28;20478;-87
2021/04/08 03:31:20;;;;;;;3.40;3.10;;;;;;;0.99;97.84;151623.84;5041313;28;20872;-87
2021/04/08 03:33:56;;;;;;;3.70;2.83;;;;;;;0.99;100.00;151622.56;5054322;28;20458;-87
2021/04/08 03:36:32;;;;;;;3.90;3.10;;;;;;;0.98;100.00;151621.28;5019011;28;20451;-88
2021/04/08 03:39:08;;;;;;;4.00;3.60;;;;;;;0.97;99.49;151618.72;5059493;28;20442;-87
2021/04/08 03:41:44;;;;;;;4.43;3.57;;;;;;;0.97;98.88;151617.44;5053723;28;20450;-87
2021/04/08 03:44:21;;;;;;;5.03;3.50;;;;;;;0.97;98.28;151618.72;5041351;28;20458;-88
2021/04/08 03:46:58;;;;;;;4.13;3.10;;;;;;;0.98;99.76;151621.28;5036400;28;20462;-88
2021/04/08 03:49:34;;;;;;;4.17;3.50;;;;;;;0.99;99.70;151622.56;5047443;28;20470;-87
2021/04/08 03:52:11;;;;;;;4.17;3.57;;;;;;;1.02;99.72;151630.28;5048126;28;20430;-88
2021/04/08 03:54:49;;;;;;;4.57;3.70;;;;;;;1.00;100.00;151626.44;5052126;28;20454;-87
2021/04/08 03:57:25;;;;;;;6.73;3.50;;;;;;;0.99;98.12;151622.56;5039901;28;20435;-87
2021/04/08 04:00:01;;;;;;;4.23;3.40;;;;;;;0.96;98.97;151616.16;5030218;28;20469;-88
2021/04/08 04:02:37;;;;;;;4.57;3.63;;;;;;;0.93;98.89;151607.13;5037235;28;20455;-87
2021/04/08 04:05:13;;;;;;;3.37;3.07;;;;;;;0.92;97.84;151604.59;5033662;28;20435;-87
2021/04/08 04:07:50;;;;;;;3.87;2.90;;;;;;;0.89;98.53;151596.88;5119924;27;20465;-87
2021/04/08 04:10:25;;;;;;;3.40;3.10;;;;;;;0.89;99.66;151598.19;5094531;27;20443;-88
2021/04/08 04:13:00;;;;;;;6.00;3.70;;;;;;;0.91;99.93;151602.00;5036554;28;20541;-87
2021/04/08 04:15:38;;;;;;;3.50;3.20;;;;;;;0.90;99.73;151600.72;5045589;28;20537;-87
2021/04/08 04:18:17;;;;;;;3.80;2.83;;;;;;;0.88;98.96;151594.31;5045898;28;20451;-87
2021/04/08 04:20:52;;;;;;;4.33;3.10;;;;;;;0.84;99.52;151585.34;5047770;28;20912;-89
2021/04/08 04:23:29;;;;;;;3.50;3.20;;;;;;;0.84;100.00;151584.06;5046836;28;20459;-77
2021/04/08 04:26:04;;;;;;;7.40;3.20;;;;;;;0.83;100.00;151582.75;5033630;28;20446;-76
2021/04/08 04:28:39;;;;;;;4.40;2.80;;;;;;;0.80;100.00;151575.03;5048138;28;20879;-74
2021/04/08 04:31:15;;;;;;;4.67;3.57;;;;;;;0.79;99.79;151571.22;5048492;27;20446;-75
2021/04/08 04:33:50;;;;;;;4.63;3.53;;;;;;;0.81;100.00;151576.34;5050977;28;20454;-75
2021/04/08 04:36:25;;;;;;;6.17;3.17;;;;;;;0.80;99.53;151575.03;5069170;28;20449;-74
2021/04/08 04:39:02;;;;;;;4.13;3.60;;;;;;;0.80;100.00;151575.03;5050707;28;20457;-75
2021/04/08 04:41:38;;;;;;;3.33;3.03;;;;;;;0.78;99.90;151569.91;5066804;28;20450;-75
2021/04/08 04:44:13;;;;;;;7.40;3.90;;;;;;;0.72;100.00;151554.50;5035791;28;20458;-75
2021/04/08 04:46:48;;;;;;;4.80;2.97;;;;;;;0.70;99.70;151549.38;5069193;28;20775;-74
2021/04/08 04:49:23;;;;;;;5.37;3.70;;;;;;;0.74;100.00;151559.66;5051923;28;20478;-75
2021/04/08 04:51:58;;;;;;;4.30;3.40;;;;;;;0.75;100.00;151562.22;5039155;28;20435;-75
2021/04/08 04:54:34;;;;;;;5.33;4.63;;;;;;;0.77;100.00;151567.34;5025051;28;20463;-75
2021/04/08 04:57:09;;;;;;;4.03;3.57;;;;;;;0.75;98.73;151560.91;5029203;28;20951;-75
2021/04/08 04:59:45;;;;;;;7.27;3.50;;;;;;;0.76;100.00;151564.81;5049033;28;20477;-74
2021/04/08 05:02:21;;;;;;;4.73;3.73;;;;;;;0.75;100.00;151560.91;5046026;28;20457;-76
2021/04/08 05:04:56;;;;;;;5.17;3.80;;;;;;;0.75;99.25;151562.22;5051175;28;21110;-75
2021/04/08 05:07:31;;;;;;;4.07;3.33;;;;;;;0.76;100.00;151564.81;5049380;28;20450;-75
2021/04/08 05:10:09;;;;;;;6.00;4.20;;;;;;;0.79;100.00;151571.22;5069207;28;20403;-75
2021/04/08 05:12:44;;;;;;;4.37;3.97;;;;;;;0.79;99.80;151571.22;5047143;28;20482;-76
2021/04/08 05:15:19;;;;;;;3.80;3.40;;;;;;;0.80;100.00;151575.03;5040145;28;20466;-75
2021/04/08 05:17:55;;;;;;;5.43;3.90;;;;;;;0.82;99.78;151578.94;5033470;28;20455;-75
2021/04/08 05:20:30;;;;;;;4.37;3.37;;;;;;;0.87;100.00;151593.06;5063418;28;20430;-76
2021/04/08 05:23:05;;;;;;;5.97;3.70;;;;;;;0.87;98.16;151593.06;5043653;28;20474;-76
2021/04/08 05:25:41;;;;;;;6.13;4.17;;;;;;;0.88;97.51;151595.59;5052665;28;20963;-76
2021/04/08 05:28:16;;;;;;;5.73;4.17;;;;;;;0.90;97.02;151599.47;5043097;28;20981;-75
2021/04/08 05:30:51;;;;;;;5.07;4.30;;;;;;;0.91;98.07;151602.00;5040920;28;20454;-76
2021/04/08 05:33:26;;;;;;;6.88;5.10;;;;;;;0.90;96.67;151599.47;5044747;28;20441;-75
2021/04/08 05:36:04;;;;;;;8.03;5.00;;;;;;;0.94;96.23;151611.03;5047893;28;20205;-75
2021/04/08 05:38:39;;;;;;;6.27;4.97;;;;;;;0.97;96.51;151618.72;5044498;28;20458;-75
2021/04/08 05:41:16;;;;;;;7.50;5.50;;;;;;;0.99;95.07;151622.56;5043600;28;20827;-78
2021/04/08 05:43:51;;;;;;;7.33;4.77;;;;;;;1.00;97.04;151626.44;5042590;28;20442;-75
2021/04/08 05:46:26;;;;;;;5.43;4.83;;;;;;;1.01;96.52;151628.97;5127781;27;20454;-75
2021/04/08 05:49:01;;;;;;;7.67;4.53;;;;;;;1.06;95.69;151640.56;5044473;28;20470;-75
2021/04/08 05:51:36;;;;;;;7.00;4.60;;;;;;;1.05;96.37;151639.28;5047218;28;20450;-76
2021/04/08 05:54:11;;;;;;;5.60;4.43;;;;;;;1.08;94.34;151645.69;5046014;28;20806;-76
2021/04/08 05:56:47;;;;;;;6.00;4.40;;;;;;;1.14;95.07;151661.09;5047161;28;20434;-76
2021/04/08 05:59:23;;;;;;;4.43;4.03;;;;;;;1.17;96.56;151670.09;5040627;28;20475;-76
2021/04/08 06:01:58;;;;;;;6.10;3.80;;;;;;;1.16;95.13;151666.25;5038454;28;20839;-76
2021/04/08 06:04:33;;;;;;;5.93;4.30;;;;;;;1.21;93.56;151679.09;5049623;28;20516;-76
2021/04/08 06:07:08;;;;;;;7.10;4.10;;;;;;;1.27;93.62;151693.22;5035146;28;20442;-76
2021/04/08 06:09:43;;;;;;;3.87;3.43;;;;;;;1.32;95.35;151706.06;5042468;28;20487;-76
2021/04/08 06:12:20;;;;;;;6.27;3.80;;;;;;;1.34;93.28;151711.19;5049408;28;20450;-76
2021/04/08 06:14:56;;;;;;;6.43;4.30;;;;;;;1.39;92.03;151724.03;5042558;28;20450;-76
2021/04/08 06:17:31;;;;;;;4.80;4.07;;;;;;;1.40;92.37;151726.63;5062759;28;20957;-76
2021/04/08 06:20:07;;;;;;;4.50;3.65;;;;;;;1.43;91.23;151734.34;5040732;28;20421;-75
2021/04/08 06:22:42;;;;;;;4.00;3.60;;;;;;;1.48;89.92;151747.19;5043583;27;20201;-76
2021/04/08 06:25:17;;;;;;;4.50;3.80;;;;;;;1.54;90.23;151762.56;5042930;28;20482;-76
2021/04/08 06:27:53;;;;;;;6.70;4.90;;;;;;;1.61;89.93;151780.59;5036511;28;20450;-77
2021/04/08 06:30:29;;;;;;;5.38;4.00;;;;;;;1.77;89.67;151822.97;5064028;28;20538;-76
2021/04/08 06:33:04;;;;;;;5.30;3.93;;;;;;;1.91;88.62;151857.69;5047791;27;20595;-78
2021/04/08 06:35:40;;;;;;;9.40;4.37;;;;;;;2.04;88.75;151891.09;5021046;28;20447;-77
2021/04/08 06:38:26;;;;;;;7.37;3.60;;;;;;;2.09;88.40;151902.72;5063500;28;20474;-77
2021/04/08 06:41:01;;;;;;;5.30;4.57;;;;;;;2.10;87.47;151906.53;5036237;28;20460;-78
2021/04/08 06:43:39;;;;;;;7.50;4.67;;;;;;;2.13;88.15;151912.97;5049562;27;20443;-78
2021/04/08 06:46:15;;;;;;;5.57;4.57;;;;;;;2.17;88.00;151923.28;5037994;28;20447;-78
2021/04/08 06:48:52;;;;;;;6.07;4.57;;;;;;;2.27;87.62;151948.97;5051365;28;20470;-79
2021/04/08 06:51:32;;;;;;;6.73;4.97;;;;;;;2.24;88.47;151942.56;5039261;28;21067;-78
2021/04/08 06:54:07;;;;;;;6.60;5.50;;;;;;;2.21;85.87;151933.53;5038003;28;20550;-78
2021/04/08 06:56:43;;;;;;;5.80;5.10;;;;;;;2.24;85.52;151942.56;5035957;28;20461;-78
2021/04/08 06:59:19;;;;;;;6.70;5.03;;;;;;;2.32;85.85;151961.84;5052073;28;20505;-77
2021/04/08 07:01:54;;;;;;;7.40;6.10;;;;;;;2.34;86.56;151968.25;5042699;28;20471;-77
2021/04/08 07:04:30;;;;;;;7.17;6.47;;;;;;;2.43;83.27;151991.44;5044627;28;20458;-77
2021/04/08 07:07:04;;;;;;;7.67;6.07;;;;;;;2.52;84.72;152013.25;5052056;28;20890;-77
2021/04/08 07:09:40;;;;;;;7.70;6.30;;;;;;;2.68;82.74;152053.13;5049418;28;20815;-76
2021/04/08 07:12:15;;;;;;;9.30;7.20;;;;;;;2.71;81.88;152060.84;5036951;28;21256;-77
2021/04/08 07:14:52;;;;;;;9.13;7.53;;;;;;;2.80;81.15;152084.03;5049373;28;20450;-76
2021/04/08 07:17:28;;;;;;;8.00;6.33;;;;;;;2.83;80.92;152093.00;5062883;28;20904;-76
2021/04/08 07:20:04;;;;;;;9.17;7.50;;;;;;;2.83;77.06;152093.00;5033383;28;20830;-76
2021/04/08 07:22:39;;;;;;;8.80;6.63;;;;;;;2.89;78.18;152108.44;5028055;28;20959;-76
2021/04/08 07:25:16;;;;;;;9.63;7.07;;;;;;;2.92;80.97;152114.88;5031838;28;20525;-76
2021/04/08 07:27:51;;;;;;;7.80;6.20;;;;;;;2.81;83.24;152086.56;5055005;28;20430;-77
2021/04/08 07:30:28;;;;;;;8.33;7.20;;;;;;;2.94;81.73;152120.00;5050030;27;20451;-77
2021/04/08 07:33:03;;;;;;;8.33;5.97;;;;;;;3.04;77.44;152147.03;5035474;28;20439;-77
2021/04/08 07:35:40;;;;;;;8.57;6.60;;;;;;;3.27;80.33;152204.97;5051660;28;20450;-77
2021/04/08 07:38:15;;;;;;;7.70;6.30;;;;;;;3.39;80.39;152235.81;5052472;28;20426;-78
2021/04/08 07:40:58;;;;;;;8.50;6.17;;;;;;;3.35;79.23;152225.56;5050275;28;20450;-78
2021/04/08 07:43:33;;;;;;;7.50;6.13;;;;;;;3.67;79.27;152307.94;5045429;28;20439;-78
2021/04/08 07:46:30;;;;;;;6.70;5.73;;;;;;;3.95;79.10;152377.44;5044510;27;20545;-78
2021/04/08 07:49:06;;;;;;;8.77;6.90;;;;;;;4.02;77.32;152395.50;5060286;28;20471;-78
2021/04/08 07:51:41;;;;;;;8.40;6.50;;;;;;;4.25;78.33;152454.72;5046021;28;20454;-78
2021/04/08 07:54:17;;;;;;;13.00;8.10;;;;;;;4.26;76.17;152457.31;5029011;28;20507;-79
2021/04/08 07:56:52;;;;;;;10.20;6.90;;;;;;;4.19;76.06;152439.25;5049541;28;20561;-78
2021/04/08 07:59:28;;;;;;;6.13;5.20;;;;;;;4.31;75.45;152470.19;5049511;28;20473;-78
2021/04/08 08:02:06;;;;;;;8.43;5.50;;;;;;;4.47;75.02;152511.41;5047639;28;20447;-78
2021/04/08 08:04:41;;;;;;;7.83;6.30;;;;;;;4.54;74.32;152529.44;5066208;28;20839;-78
2021/04/08 08:07:27;;;;;;;6.63;5.33;;;;;;;4.75;74.27;152583.56;5056659;28;20821;-78
2021/04/08 08:10:03;;;;;;;8.00;5.60;;;;;;;4.57;73.14;152535.88;5069899;28;20811;-78
2021/04/08 08:12:38;;;;;;;8.87;6.57;;;;;;;4.93;75.13;152629.94;5048820;28;20471;-78
2021/04/08 08:15:19;;;;;;;8.13;6.17;;;;;;;5.34;74.38;152733.06;5032307;28;20451;-79
2021/04/08 08:17:56;;;;;;;8.87;5.77;;;;;;;5.51;73.76;152778.19;5035497;28;20443;-77
2021/04/08 08:20:32;;;;;;;7.50;6.43;;;;;;;5.79;73.32;152849.13;5045697;28;20458;-77
2021/04/08 08:23:07;;;;;;;5.80;5.20;;;;;;;5.57;69.16;152792.38;5026484;28;20549;-77
2021/04/08 08:25:42;;;;;;;6.97;5.77;;;;;;;5.52;71.76;152779.47;5029670;28;20458;-77
2021/04/08 08:28:17;;;;;;;7.30;6.17;;;;;;;5.55;70.45;152787.22;5031477;28;20484;-77
2021/04/08 08:30:54;;;;;;;7.67;6.33;;;;;;;5.87;69.62;152869.81;5051408;28;20911;-77
2021/04/08 08:33:30;;;;;;;6.63;6.03;;;;;;;6.22;69.14;152957.53;5063240;28;20760;-77
2021/04/08 08:36:05;;;;;;;6.10;5.50;;;;;;;6.49;66.22;153027.16;5041724;28;20466;-77
2021/04/08 08:38:40;;;;;;;6.13;4.93;;;;;;;6.39;68.00;153001.38;5034552;28;20463;-78
2021/04/08 08:41:16;;;;;;;8.60;5.23;;;;;;;6.09;67.99;152926.53;5060791;28;20928;-77
2021/04/08 08:43:51;;;;;;;7.43;5.60;;;;;;;5.84;68.32;152860.72;5019867;28;20453;-78
2021/04/08 08:46:27;;;;;;;10.23;5.93;;;;;;;5.90;71.04;152876.25;5044629;28;20498;-78
2021/04/08 08:49:03;;;;;;;5.90;5.10;;;;;;;5.76;63.58;152841.38;5045907;28;20476;-78
2021/04/08 08:51:38;;;;;;;6.57;5.53;;;;;;;5.65;65.65;152811.69;5027340;28;20447;-78
2021/04/08 08:54:13;;;;;;;7.20;5.17;;;;;;;5.67;67.35;152818.16;5045020;28;20465;-77
2021/04/08 08:56:49;;;;;;;9.30;5.10;;;;;;;5.51;66.68;152776.88;5019922;28;20487;-77
2021/04/08 08:59:25;;;;;;;9.33;6.13;;;;;;;5.60;68.17;152798.81;5031892;28;20619;-78
2021/04/08 09:02:00;;;;;;;7.00;5.17;;;;;;;5.38;69.24;152743.34;5047161;28;20443;-78
2021/04/08 09:04:37;;;;;;;5.27;4.77;;;;;;;5.52;68.65;152780.78;5045764;28;20455;-78
2021/04/08 09:07:14;;;;;;;8.73;5.60;;;;;;;5.58;61.57;152794.97;5033239;28;20464;-78
2021/04/08 09:09:54;;;;;;;8.40;5.37;;;;;;;5.53;63.65;152782.06;5045707;28;20469;-78
2021/04/08 09:12:30;;;;;;;7.13;5.27;;;;;;;5.74;65.83;152836.22;5047807;28;20484;-78
2021/04/08 09:15:07;;;;;;;7.13;6.43;;;;;;;5.90;63.77;152877.56;5048895;28;20463;-78
2021/04/08 09:17:45;;;;;;;6.00;5.17;;;;;;;6.08;65.64;152923.97;5031591;28;20451;-78
2021/04/08 09:20:21;;;;;;;8.20;4.80;;;;;;;6.01;65.13;152905.88;5015631;28;20457;-78
2021/04/08 09:22:59;;;;;;;7.07;5.43;;;;;;;6.02;63.54;152908.50;5037822;28;20954;-78
2021/04/08 09:25:37;;;;;;;5.60;4.90;;;;;;;6.33;64.32;152985.91;5046093;28;20794;-78
2021/04/08 09:28:13;;;;;;;5.93;4.70;;;;;;;6.26;59.68;152967.81;5041672;28;20455;-78
2021/04/08 09:30:57;;;;;;;6.00;5.13;;;;;;;6.11;65.66;152931.72;5046749;28;20517;-78
2021/04/08 09:33:58;;;;;;;5.73;4.10;;;;;;;5.91;61.12;152880.09;5022977;28;20452;-78
2021/04/08 09:36:39;;;;;;;5.57;4.67;;;;;;;5.74;65.38;152836.22;5028192;28;20460;-79
2021/04/08 09:39:28;;;;;;;5.60;4.67;;;;;;;5.52;64.77;152779.47;5041087;28;20449;-78
2021/04/08 09:42:04;;;;;;;4.97;4.20;;;;;;;5.54;60.02;152784.63;5017470;28;20492;-78
2021/04/08 09:44:41;;;;;;;6.10;4.57;;;;;;;5.50;63.65;152774.31;5028848;28;20518;-78
2021/04/08 09:47:32;;;;;;;5.03;4.20;;;;;;;5.50;62.77;152774.31;5036508;27;20539;-77
2021/04/08 09:50:09;;;;;;;7.93;4.90;;;;;;;5.55;64.47;152787.22;5028876;28;20470;-78
2021/04/08 09:52:55;;;;;;;4.73;3.83;;;;;;;5.54;64.95;152785.91;5040116;28;20799;-78
2021/04/08 09:55:31;;;;;;;5.23;4.73;;;;;;;5.37;64.38;152742.09;5037752;28;20808;-78
2021/04/08 09:58:06;;;;;;;4.57;4.17;;;;;;;5.44;64.32;152760.13;5040346;28;20453;-78
2021/04/08 10:00:42;;;;;;;5.23;3.80;;;;;;;5.51;62.37;152776.88;5057817;28;20475;-78
2021/04/08 10:03:28;;;;;;;5.50;4.10;;;;;;;5.47;65.08;152766.59;5055678;28;20451;-77
2021/04/08 10:06:14;;;;;;;7.40;4.70;;;;;;;5.56;67.10;152789.75;5039794;28;20467;-78
2021/04/08 10:08:51;;;;;;;4.50;4.10;;;;;;;5.63;63.89;152807.84;5043998;28;20468;-77
2021/04/08 10:11:28;;;;;;;5.63;4.97;;;;;;;5.67;66.63;152818.16;5035840;28;20479;-78
2021/04/08 10:14:20;;;;;;;7.17;4.63;;;;;;;5.71;66.05;152828.47;5035976;28;20457;-78
2021/04/08 10:17:04;;;;;;;5.97;5.22;;;;;;;5.71;66.95;152827.19;5040287;28;21406;-78
2021/04/08 10:19:41;;;;;;;4.10;3.70;;;;;;;5.37;66.28;152742.09;5036092;28;20208;-78
2021/04/08 10:22:16;;;;;;;5.30;4.80;;;;;;;5.36;64.10;152739.50;5032197;27;20439;-84
2021/04/08 10:24:52;;;;;;;8.50;4.80;;;;;;;5.40;66.73;152748.56;5054631;27;20523;-78
2021/04/08 10:27:27;;;;;;;5.80;4.77;;;;;;;5.40;63.41;152749.81;5031333;27;20451;-77
2021/04/08 10:30:13;;;;;;;5.43;4.33;;;;;;;5.58;66.00;152794.97;5041218;28;21023;-78
2021/04/08 10:32:48;;;;;;;5.87;5.33;;;;;;;5.70;64.40;152825.88;5061639;27;20443;-78
2021/04/08 10:35:25;;;;;;;5.73;4.80;;;;;;;5.78;66.30;152846.53;5041239;28;20517;-78
2021/04/08 10:38:04;;;;;;;6.50;4.57;;;;;;;5.71;63.78;152828.47;5043134;27;20821;-78
2021/04/08 10:40:49;;;;;;;5.77;4.87;;;;;;;5.85;68.35;152863.38;5079702;27;20457;-78
2021/04/08 10:43:24;;;;;;;5.23;3.83;;;;;;;5.89;64.32;152874.97;5018553;28;20452;-78
2021/04/08 10:46:00;;;;;;;4.80;4.27;;;;;;;6.05;66.10;152916.25;5043153;28;20453;-78
2021/04/08 10:48:35;;;;;;;4.70;4.03;;;;;;;6.11;63.63;152931.72;5041919;28;20574;-79
2021/04/08 10:51:13;;;;;;;4.93;4.30;;;;;;;6.24;59.62;152962.66;5028629;28;20448;-79
2021/04/08 10:53:49;;;;;;;7.20;3.50;;;;;;;6.34;61.93;152989.78;5065206;28;20440;-78
2021/04/08 10:56:24;;;;;;;5.00;3.93;;;;;;;6.38;64.06;153000.06;5052555;28;20491;-78
2021/04/08 10:59:15;;;;;;;5.63;4.40;;;;;;;6.59;62.35;153053.00;5034267;28;20479;-78
2021/04/08 11:01:50;;;;;;;5.73;5.13;;;;;;;6.64;63.05;153065.91;5055996;28;20464;-78
2021/04/08 11:04:26;;;;;;;6.60;4.80;;;;;;;6.60;58.52;153055.56;5039752;28;20544;-77
2021/04/08 11:07:01;;;;;;;5.37;4.30;;;;;;;6.59;61.33;153054.28;5041427;28;20455;-77
2021/04/08 11:09:36;;;;;;;4.07;3.67;;;;;;;6.57;56.47;153047.81;5047800;28;20469;-77
2021/04/08 11:12:18;;;;;;;5.33;4.50;;;;;;;6.62;60.11;153060.72;5036137;28;20455;-78
2021/04/08 11:14:55;;;;;;;9.00;5.03;;;;;;;6.56;60.21;153045.25;5025618;28;20466;-78
2021/04/08 11:17:31;;;;;;;5.93;4.03;;;;;;;6.48;63.31;153024.63;5046587;27;20460;-78
2021/04/08 11:20:07;;;;;;;7.30;5.87;;;;;;;6.44;59.53;153014.28;5039572;28;20432;-77
2021/04/08 11:22:44;;;;;;;5.50;4.90;;;;;;;5.95;56.33;152889.16;5061290;28;20898;-78
2021/04/08 11:25:20;;;;;;;6.70;5.50;;;;;;;6.17;58.06;152944.63;5045494;28;20457;-78
2021/04/08 11:27:57;;;;;;;5.70;4.47;;;;;;;6.31;60.83;152980.72;5050396;28;20586;-78
2021/04/08 11:30:34;;;;;;;4.73;3.77;;;;;;;6.42;56.35;153010.41;5050858;28;20480;-78
2021/04/08 11:33:14;;;;;;;6.17;4.33;;;;;;;6.57;57.52;153049.13;5028897;28;20798;-78
2021/04/08 11:35:49;;;;;;;4.60;3.33;;;;;;;6.65;58.57;153068.47;5037467;28;20470;-78
2021/04/08 11:38:25;;;;;;;8.33;4.63;;;;;;;6.60;58.85;153055.56;5047436;28;20440;-78
2021/04/08 11:41:07;;;;;;;4.30;3.73;;;;;;;6.60;55.31;153055.56;5037509;28;20460;-78
2021/04/08 11:43:48;;;;;;;8.10;4.93;;;;;;;6.62;57.27;153060.72;5048324;28;20454;-78
2021/04/08 11:46:28;;;;;;;5.53;4.67;;;;;;;6.63;56.10;153063.31;5051332;28;20456;-78
2021/04/08 11:49:15;;;;;;;6.43;4.70;;;;;;;6.64;55.70;153065.91;5050055;28;20468;-78
2021/04/08 11:51:50;;;;;;;4.67;4.27;;;;;;;6.72;55.25;153087.81;5052211;28;20451;-77
2021/04/08 11:54:25;;;;;;;4.97;3.87;;;;;;;6.74;59.97;153093.03;5051241;28;20484;-78
2021/04/08 11:57:05;;;;;;;4.63;3.80;;;;;;;6.84;56.66;153117.53;5035642;28;20535;-78
2021/04/08 11:59:41;;;;;;;5.00;4.30;;;;;;;6.97;54.03;153149.78;5047149;28;20470;-78
2021/04/08 12:02:28;;;;;;;5.57;3.60;;;;;;;7.00;54.10;153158.84;5035955;28;20438;-78
2021/04/08 12:05:08;;;;;;;5.07;4.30;;;;;;;7.00;54.26;153158.84;5048126;28;20783;-78
2021/04/08 12:07:44;;;;;;;4.60;3.63;;;;;;;7.03;54.60;153165.28;5035960;28;20769;-78
2021/04/08 12:10:27;;;;;;;5.10;3.77;;;;;;;7.03;55.70;153165.28;5099733;27;20496;-78
2021/04/08 12:13:04;;;;;;;5.73;4.30;;;;;;;7.00;58.14;153157.53;5038120;28;20816;-78
2021/04/08 12:15:43;;;;;;;4.10;3.70;;;;;;;6.99;53.18;153156.25;5033309;28;20469;-78
2021/04/08 12:18:20;;;;;;;5.23;4.07;;;;;;;7.09;53.90;153182.09;5047635;28;20936;-78